Japan Airlines Virtual Airport Information Service

Ho Chi Minh City International Airport

ICAO: VVTS Country: Vietnam
Latitude: 10.8188 Longitude: 106.652
Latest Arrival : KAL395 (2A) (WSSS-VVTS) Latest Departure : VJC811 (VVTS-WSSS)


WX CaptureLIVE
Data provided by noaa.gov | Fetched at 12:18:41

METAR : VVTS 061200Z VRB02KT 8000 -SHRA SCT015 FEW017CB BKN050 28/27 Q1006 TEMPO TL1225 3000 SHRA RMK CB OVER RWY

TAF : VVTS 061137Z 0612/0718 24010KT 9999 SCT015 BKN040 TEMPO 0612/0618 5000 SHRA SCT015 FEW017CB BKN040 TEMPO 0706/0712 23015G32KT 1500 +TSRA BKN013 SCT015CB BKN040


Runway Data for VVTS
Data provided by openaviationdata.com

Runway ID Mag Var Hdg Length Elevation Surface ILS Freq ILS Id ILS Slope
07L 0 69° 10026 ft 33 ft Concrete -- -- --
07R 0 69° 12396 ft 33 ft Concrete -- -- --
25L 0 249° 12396 ft 33 ft Concrete 108.3 SGN 3
25R 0 249° 10026 ft 33 ft Concrete 110.5 HCM 3

Ho Chi Minh City International Airport, Vietnam
Use only for reference purposes



Not for navigational purposes.